sensor_id;sensor_type;location;lat;lon;timestamp;pressure;altitude;pressure_sealevel;temperature;humidity
4836;BME280;66719;51.226;6.902;2023-02-13T00:00:14;102918.84;;;8.21;100.00
4836;BME280;66719;51.226;6.902;2023-02-13T00:02:41;102917.94;;;8.19;100.00
4836;BME280;66719;51.226;6.902;2023-02-13T00:05:08;102920.50;;;8.18;100.00
4836;BME280;66719;51.226;6.902;2023-02-13T00:07:34;102916.13;;;8.17;100.00
4836;BME280;66719;51.226;6.902;2023-02-13T00:10:01;102909.13;;;8.16;100.00
4836;BME280;66719;51.226;6.902;2023-02-13T00:12:27;102916.13;;;8.17;100.00
4836;BME280;66719;51.226;6.902;2023-02-13T00:14:54;102912.59;;;8.16;100.00
4836;BME280;66719;51.226;6.902;2023-02-13T00:17:20;102910.00;;;8.16;100.00
4836;BME280;66719;51.226;6.902;2023-02-13T00:19:47;102918.75;;;8.17;100.00
4836;BME280;66719;51.226;6.902;2023-02-13T00:22:13;102906.50;;;8.16;100.00
4836;BME280;66719;51.226;6.902;2023-02-13T00:24:42;102908.31;;;8.17;100.00
4836;BME280;66719;51.226;6.902;2023-02-13T00:27:08;102907.38;;;8.16;100.00
4836;BME280;66719;51.226;6.902;2023-02-13T00:29:35;102904.69;;;8.13;100.00
4836;BME280;66719;51.226;6.902;2023-02-13T00:32:01;102902.97;;;8.14;100.00
4836;BME280;66719;51.226;6.902;2023-02-13T00:34:28;102892.47;;;8.11;100.00
4836;BME280;66719;51.226;6.902;2023-02-13T00:36:55;102896.81;;;8.10;100.00
4836;BME280;66719;51.226;6.902;2023-02-13T00:39:21;102899.41;;;8.10;100.00
4836;BME280;66719;51.226;6.902;2023-02-13T00:41:47;102886.41;;;8.12;100.00
4836;BME280;66719;51.226;6.902;2023-02-13T00:44:14;102882.03;;;8.11;100.00
4836;BME280;66719;51.226;6.902;2023-02-13T00:46:41;102885.53;;;8.11;100.00
4836;BME280;66719;51.226;6.902;2023-02-13T00:49:07;102880.28;;;8.10;100.00
4836;BME280;66719;51.226;6.902;2023-02-13T00:51:34;102883.75;;;8.10;100.00
4836;BME280;66719;51.226;6.902;2023-02-13T00:54:00;102882.03;;;8.11;100.00
4836;BME280;66719;51.226;6.902;2023-02-13T00:56:27;102882.00;;;8.09;100.00
4836;BME280;66719;51.226;6.902;2023-02-13T00:58:54;102876.72;;;8.08;100.00
4836;BME280;66719;51.226;6.902;2023-02-13T01:01:20;102883.66;;;8.07;100.00
4836;BME280;66719;51.226;6.902;2023-02-13T01:03:46;102874.94;;;8.07;100.00
4836;BME280;66719;51.226;6.902;2023-02-13T01:06:13;102881.06;;;8.07;100.00
4836;BME280;66719;51.226;6.902;2023-02-13T01:08:40;102884.53;;;8.08;100.00
4836;BME280;66719;51.226;6.902;2023-02-13T01:11:07;102888.88;;;8.07;100.00
4836;BME280;66719;51.226;6.902;2023-02-13T01:13:33;102885.47;;;8.08;100.00
4836;BME280;66719;51.226;6.902;2023-02-13T01:16:00;102888.84;;;8.06;100.00
4836;BME280;66719;51.226;6.902;2023-02-13T01:18:26;102894.06;;;8.06;100.00
4836;BME280;66719;51.226;6.902;2023-02-13T01:21:05;102885.34;;;8.05;100.00
4836;BME280;66719;51.226;6.902;2023-02-13T01:23:36;102877.50;;;8.04;100.00
4836;BME280;66719;51.226;6.902;2023-02-13T01:26:05;102884.44;;;8.03;100.00
4836;BME280;66719;51.226;6.902;2023-02-13T01:28:32;102873.16;;;8.04;100.00
4836;BME280;66719;51.226;6.902;2023-02-13T01:30:59;102874.00;;;8.03;100.00
4836;BME280;66719;51.226;6.902;2023-02-13T01:33:27;102867.03;;;8.02;100.00
4836;BME280;66719;51.226;6.902;2023-02-13T01:35:54;102873.06;;;8.00;100.00
4836;BME280;66719;51.226;6.902;2023-02-13T01:38:21;102879.16;;;8.00;100.00
4836;BME280;66719;51.226;6.902;2023-02-13T01:40:50;102880.81;;;7.98;100.00
4836;BME280;66719;51.226;6.902;2023-02-13T01:43:17;102874.66;;;7.96;100.00
4836;BME280;66719;51.226;6.902;2023-02-13T01:45:46;102879.03;;;7.97;100.00
4836;BME280;66719;51.226;6.902;2023-02-13T01:48:18;102876.44;;;7.97;100.00
4836;BME280;66719;51.226;6.902;2023-02-13T01:50:54;102871.19;;;7.96;100.00
4836;BME280;66719;51.226;6.902;2023-02-13T01:53:26;102874.66;;;7.96;100.00
4836;BME280;66719;51.226;6.902;2023-02-13T01:56:00;102869.41;;;7.94;100.00
4836;BME280;66719;51.226;6.902;2023-02-13T01:58:31;102876.34;;;7.94;100.00
4836;BME280;66719;51.226;6.902;2023-02-13T02:00:59;102869.38;;;7.93;100.00
4836;BME280;66719;51.226;6.902;2023-02-13T02:03:32;102870.25;;;7.93;100.00
4836;BME280;66719;51.226;6.902;2023-02-13T02:06:01;102872.84;;;7.92;100.00
4836;BME280;66719;51.226;6.902;2023-02-13T02:08:29;102865.84;;;7.91;100.00
4836;BME280;66719;51.226;6.902;2023-02-13T02:11:04;102867.56;;;7.90;100.00
4836;BME280;66719;51.226;6.902;2023-02-13T02:13:32;102862.28;;;7.89;100.00
4836;BME280;66719;51.226;6.902;2023-02-13T02:15:59;102875.38;;;7.90;100.00
4836;BME280;66719;51.226;6.902;2023-02-13T02:18:26;102870.97;;;7.88;100.00
4836;BME280;66719;51.226;6.902;2023-02-13T02:21:57;102873.56;;;7.88;100.00
4836;BME280;66719;51.226;6.902;2023-02-13T02:26:52;102863.06;;;7.85;100.00
4836;BME280;66719;51.226;6.902;2023-02-13T02:29:35;102869.13;;;7.84;100.00
4836;BME280;66719;51.226;6.902;2023-02-13T02:32:30;102872.63;;;7.84;100.00
4836;BME280;66719;51.226;6.902;2023-02-13T02:40:17;102867.25;;;7.80;100.00
4836;BME280;66719;51.226;6.902;2023-02-13T02:48:30;102863.78;;;7.79;100.00
4836;BME280;66719;51.226;6.902;2023-02-13T02:51:39;102852.44;;;7.77;100.00
4836;BME280;66719;51.226;6.902;2023-02-13T02:54:24;102863.75;;;7.78;100.00
4836;BME280;66719;51.226;6.902;2023-02-13T02:57:20;102861.97;;;7.77;100.00
4836;BME280;66719;51.226;6.902;2023-02-13T02:59:49;102859.38;;;7.77;100.00
4836;BME280;66719;51.226;6.902;2023-02-13T03:02:36;102865.44;;;7.76;100.00
4836;BME280;66719;51.226;6.902;2023-02-13T03:05:24;102859.31;;;7.75;100.00
4836;BME280;66719;51.226;6.902;2023-02-13T03:08:12;102858.44;;;7.75;100.00
4836;BME280;66719;51.226;6.902;2023-02-13T03:10:39;102861.91;;;7.74;100.00
4836;BME280;66719;51.226;6.902;2023-02-13T03:13:41;102862.78;;;7.74;100.00
4836;BME280;66719;51.226;6.902;2023-02-13T03:16:19;102858.41;;;7.73;100.00
4836;BME280;66719;51.226;6.902;2023-02-13T03:19:12;102864.50;;;7.74;100.00
4836;BME280;66719;51.226;6.902;2023-02-13T03:22:05;102868.88;;;7.75;100.00
4836;BME280;66719;51.226;6.902;2023-02-13T03:25:04;102864.50;;;7.74;100.00
4836;BME280;66719;51.226;6.902;2023-02-13T03:39:34;102862.72;;;7.73;100.00
4836;BME280;66719;51.226;6.902;2023-02-13T03:42:07;102861.03;;;7.73;100.00
4836;BME280;66719;51.226;6.902;2023-02-13T03:44:40;102862.72;;;7.73;100.00
4836;BME280;66719;51.226;6.902;2023-02-13T03:47:10;102857.47;;;7.71;100.00
4836;BME280;66719;51.226;6.902;2023-02-13T03:49:46;102860.06;;;7.71;100.00
4836;BME280;66719;51.226;6.902;2023-02-13T03:52:53;102868.78;;;7.72;100.00
4836;BME280;66719;51.226;6.902;2023-02-13T03:55:44;102867.03;;;7.72;100.00
4836;BME280;66719;51.226;6.902;2023-02-13T03:58:35;102866.16;;;7.72;100.00
4836;BME280;66719;51.226;6.902;2023-02-13T04:01:26;102862.66;;;7.71;100.00
4836;BME280;66719;51.226;6.902;2023-02-13T04:04:29;102867.00;;;7.71;100.00
4836;BME280;66719;51.226;6.902;2023-02-13T04:07:02;102868.72;;;7.70;100.00
4836;BME280;66719;51.226;6.902;2023-02-13T04:09:32;102865.25;;;7.70;100.00
4836;BME280;66719;51.226;6.902;2023-02-13T04:14:34;102871.31;;;7.69;100.00
4836;BME280;66719;51.226;6.902;2023-02-13T04:17:05;102864.34;;;7.69;100.00
4836;BME280;66719;51.226;6.902;2023-02-13T04:19:33;102870.41;;;7.68;100.00
4836;BME280;66719;51.226;6.902;2023-02-13T04:22:00;102876.50;;;7.69;100.00
4836;BME280;66719;51.226;6.902;2023-02-13T04:24:27;102873.91;;;7.69;100.00
4836;BME280;66719;51.226;6.902;2023-02-13T04:26:54;102875.66;;;7.70;100.00
4836;BME280;66719;51.226;6.902;2023-02-13T04:29:22;102872.19;;;7.69;100.00
4836;BME280;66719;51.226;6.902;2023-02-13T04:31:49;102866.94;;;7.68;100.00
4836;BME280;66719;51.226;6.902;2023-02-13T04:34:16;102866.94;;;7.68;100.00
4836;BME280;66719;51.226;6.902;2023-02-13T04:36:42;102875.66;;;7.70;100.00
4836;BME280;66719;51.226;6.902;2023-02-13T04:39:10;102873.03;;;7.68;100.00
4836;BME280;66719;51.226;6.902;2023-02-13T04:41:37;102871.31;;;7.69;100.00
4836;BME280;66719;51.226;6.902;2023-02-13T04:44:03;102867.81;;;7.68;100.00
4836;BME280;66719;51.226;6.902;2023-02-13T04:46:30;102869.50;;;7.66;100.00
4836;BME280;66719;51.226;6.902;2023-02-13T04:48:56;102873.00;;;7.67;100.00
4836;BME280;66719;51.226;6.902;2023-02-13T04:51:23;102866.91;;;7.66;100.00
4836;BME280;66719;51.226;6.902;2023-02-13T04:53:49;102861.66;;;7.64;100.00
4836;BME280;66719;51.226;6.902;2023-02-13T04:56:15;102866.84;;;7.64;100.00
4836;BME280;66719;51.226;6.902;2023-02-13T04:58:45;102864.28;;;7.66;100.00
4836;BME280;66719;51.226;6.902;2023-02-13T05:01:15;102870.34;;;7.65;100.00
4836;BME280;66719;51.226;6.902;2023-02-13T05:03:42;102866.84;;;7.64;100.00
4836;BME280;66719;51.226;6.902;2023-02-13T05:06:09;102865.06;;;7.63;100.00
4836;BME280;66719;51.226;6.902;2023-02-13T05:08:35;102864.19;;;7.63;100.00
4836;BME280;66719;51.226;6.902;2023-02-13T05:11:02;102868.50;;;7.62;100.00
4836;BME280;66719;51.226;6.902;2023-02-13T05:13:29;102860.69;;;7.62;100.00
4836;BME280;66719;51.226;6.902;2023-02-13T05:15:55;102868.50;;;7.62;100.00
4836;BME280;66719;51.226;6.902;2023-02-13T05:18:22;102864.13;;;7.61;100.00
4836;BME280;66719;51.226;6.902;2023-02-13T05:20:48;102865.03;;;7.62;100.00
4836;BME280;66719;51.226;6.902;2023-02-13T05:23:35;102867.56;;;7.59;100.00
4836;BME280;66719;51.226;6.902;2023-02-13T05:26:02;102874.50;;;7.58;100.00
4836;BME280;66719;51.226;6.902;2023-02-13T05:28:28;102862.25;;;7.56;100.00
4836;BME280;66719;51.226;6.902;2023-02-13T05:31:13;102866.56;;;7.55;100.00
4836;BME280;66719;51.226;6.902;2023-02-13T05:33:40;102865.66;;;7.53;100.00
4836;BME280;66719;51.226;6.902;2023-02-13T05:36:06;102865.59;;;7.52;100.00
4836;BME280;66719;51.226;6.902;2023-02-13T05:38:33;102864.72;;;7.51;100.00
4836;BME280;66719;51.226;6.902;2023-02-13T05:41:00;102862.06;;;7.50;100.00
4836;BME280;66719;51.226;6.902;2023-02-13T05:43:28;102875.06;;;7.48;100.00
4836;BME280;66719;51.226;6.902;2023-02-13T05:46:04;102874.97;;;7.45;100.00
4836;BME280;66719;51.226;6.902;2023-02-13T05:48:31;102878.41;;;7.44;100.00
4836;BME280;66719;51.226;6.902;2023-02-13T05:50:58;102877.44;;;7.41;100.00
4836;BME280;66719;51.226;6.902;2023-02-13T05:53:25;102874.81;;;7.39;100.00
4836;BME280;66719;51.226;6.902;2023-02-13T05:55:51;102875.56;;;7.36;100.00
4836;BME280;66719;51.226;6.902;2023-02-13T05:58:19;102872.88;;;7.33;100.00
4836;BME280;66719;51.226;6.902;2023-02-13T06:00:46;102878.00;;;7.30;100.00
4836;BME280;66719;51.226;6.902;2023-02-13T06:03:13;102873.56;;;7.28;100.00
4836;BME280;66719;51.226;6.902;2023-02-13T06:05:40;102863.91;;;7.24;100.00
4836;BME280;66719;51.226;6.902;2023-02-13T06:08:06;102861.19;;;7.21;100.00
4836;BME280;66719;51.226;6.902;2023-02-13T06:10:33;102867.25;;;7.20;100.00
4836;BME280;66719;51.226;6.902;2023-02-13T06:12:59;102865.44;;;7.17;100.00
4836;BME280;66719;51.226;6.902;2023-02-13T06:15:26;102868.84;;;7.15;100.00
4836;BME280;66719;51.226;6.902;2023-02-13T06:17:52;102863.63;;;7.15;100.00
4836;BME280;66719;51.226;6.902;2023-02-13T06:20:19;102861.81;;;7.12;100.00
4836;BME280;66719;51.226;6.902;2023-02-13T06:22:50;102860.00;;;7.09;100.00
4836;BME280;66719;51.226;6.902;2023-02-13T06:25:17;102862.53;;;7.06;100.00
4836;BME280;66719;51.226;6.902;2023-02-13T06:27:46;102863.38;;;7.05;100.00
4836;BME280;66719;51.226;6.902;2023-02-13T06:30:14;102874.63;;;7.04;100.00
4836;BME280;66719;51.226;6.902;2023-02-13T06:32:41;102870.22;;;7.03;100.00
4836;BME280;66719;51.226;6.902;2023-02-13T06:35:08;102871.06;;;7.02;100.00
4836;BME280;66719;51.226;6.902;2023-02-13T06:37:34;102870.19;;;7.02;100.00
4836;BME280;66719;51.226;6.902;2023-02-13T06:40:01;102869.25;;;7.00;100.00
4836;BME280;66719;51.226;6.902;2023-02-13T06:42:28;102868.28;;;6.96;100.00
4836;BME280;66719;51.226;6.902;2023-02-13T06:44:54;102863.84;;;6.94;100.00
4836;BME280;66719;51.226;6.902;2023-02-13T06:47:21;102865.53;;;6.92;100.00
4836;BME280;66719;51.226;6.902;2023-02-13T06:49:47;102859.38;;;6.90;100.00
4836;BME280;66719;51.226;6.902;2023-02-13T06:52:14;102866.31;;;6.89;100.00
4836;BME280;66719;51.226;6.902;2023-02-13T06:54:40;102868.91;;;6.89;100.00
4836;BME280;66719;51.226;6.902;2023-02-13T06:57:14;102866.31;;;6.89;100.00
4836;BME280;66719;51.226;6.902;2023-02-13T06:59:40;102862.84;;;6.89;100.00
4836;BME280;66719;51.226;6.902;2023-02-13T07:02:11;102858.38;;;6.86;100.00
4836;BME280;66719;51.226;6.902;2023-02-13T07:04:38;102860.03;;;6.83;100.00
4836;BME280;66719;51.226;6.902;2023-02-13T07:07:04;102862.59;;;6.81;100.00
4836;BME280;66719;51.226;6.902;2023-02-13T07:09:31;102863.44;;;6.80;100.00
4836;BME280;66719;51.226;6.902;2023-02-13T07:12:01;102872.91;;;6.78;100.00
4836;BME280;66719;51.226;6.902;2023-02-13T07:14:28;102869.31;;;6.74;100.00
4836;BME280;66719;51.226;6.902;2023-02-13T07:16:54;102871.88;;;6.73;100.00
4836;BME280;66719;51.226;6.902;2023-02-13T07:19:21;102863.19;;;6.72;100.00
4836;BME280;66719;51.226;6.902;2023-02-13T07:21:47;102864.84;;;6.70;100.00
4836;BME280;66719;51.226;6.902;2023-02-13T07:24:14;102864.72;;;6.67;100.00
4836;BME280;66719;51.226;6.902;2023-02-13T07:26:40;102863.91;;;6.68;100.00
4836;BME280;66719;51.226;6.902;2023-02-13T07:29:07;102863.00;;;6.68;100.00
4836;BME280;66719;51.226;6.902;2023-02-13T07:31:38;102862.13;;;6.67;100.00
4836;BME280;66719;51.226;6.902;2023-02-13T07:34:05;102877.00;;;6.70;100.00
4836;BME280;66719;51.226;6.902;2023-02-13T07:36:31;102871.81;;;6.71;100.00
4836;BME280;66719;51.226;6.902;2023-02-13T07:38:58;102870.94;;;6.71;100.00
4836;BME280;66719;51.226;6.902;2023-02-13T07:41:24;102874.44;;;6.71;100.00
4836;BME280;66719;51.226;6.902;2023-02-13T07:43:52;102870.94;;;6.71;100.00
4836;BME280;66719;51.226;6.902;2023-02-13T07:46:19;102877.03;;;6.71;100.00
4836;BME280;66719;51.226;6.902;2023-02-13T07:48:46;102880.50;;;6.72;100.00
4836;BME280;66719;51.226;6.902;2023-02-13T07:51:15;102885.72;;;6.72;100.00
4836;BME280;66719;51.226;6.902;2023-02-13T07:53:42;102886.56;;;6.71;100.00
4836;BME280;66719;51.226;6.902;2023-02-13T07:56:09;102878.75;;;6.71;100.00
4836;BME280;66719;51.226;6.902;2023-02-13T07:58:36;102881.34;;;6.71;100.00
4836;BME280;66719;51.226;6.902;2023-02-13T08:01:09;102882.28;;;6.73;100.00
4836;BME280;66719;51.226;6.902;2023-02-13T08:03:36;102888.41;;;6.75;100.00
4836;BME280;66719;51.226;6.902;2023-02-13T08:06:04;102881.50;;;6.75;100.00
4836;BME280;66719;51.226;6.902;2023-02-13T08:08:31;102877.16;;;6.76;100.00
4836;BME280;66719;51.226;6.902;2023-02-13T08:11:02;102878.13;;;6.78;100.00
4836;BME280;66719;51.226;6.902;2023-02-13T08:13:49;102885.94;;;6.78;100.00
4836;BME280;66719;51.226;6.902;2023-02-13T08:16:16;102870.31;;;6.78;100.00
4836;BME280;66719;51.226;6.902;2023-02-13T08:18:42;102872.13;;;6.80;100.00
4836;BME280;66719;51.226;6.902;2023-02-13T08:21:09;102877.38;;;6.82;100.00
4836;BME280;66719;51.226;6.902;2023-02-13T08:23:35;102875.72;;;6.86;100.00
4836;BME280;66719;51.226;6.902;2023-02-13T08:26:02;102877.53;;;6.87;100.00
4836;BME280;66719;51.226;6.902;2023-02-13T08:28:28;102874.97;;;6.88;100.00
4836;BME280;66719;51.226;6.902;2023-02-13T08:30:55;102878.50;;;6.90;100.00
4836;BME280;66719;51.226;6.902;2023-02-13T08:33:22;102888.13;;;6.93;100.00
4836;BME280;66719;51.226;6.902;2023-02-13T08:35:48;102888.28;;;6.97;100.00
4836;BME280;66719;51.226;6.902;2023-02-13T08:38:15;102884.03;;;7.01;100.00
4836;BME280;66719;51.226;6.902;2023-02-13T08:40:41;102880.63;;;7.03;100.00
4836;BME280;66719;51.226;6.902;2023-02-13T08:43:08;102877.22;;;7.04;100.00
4836;BME280;66719;51.226;6.902;2023-02-13T08:45:35;102879.94;;;7.09;100.00
4836;BME280;66719;51.226;6.902;2023-02-13T08:48:02;102884.47;;;7.15;100.00
4836;BME280;66719;51.226;6.902;2023-02-13T08:50:32;102881.94;;;7.18;100.00
4836;BME280;66719;51.226;6.902;2023-02-13T08:53:02;102881.16;;;7.20;100.00
4836;BME280;66719;51.226;6.902;2023-02-13T08:55:28;102877.81;;;7.24;100.00
4836;BME280;66719;51.226;6.902;2023-02-13T08:58:01;102877.88;;;7.26;100.00
4836;BME280;66719;51.226;6.902;2023-02-13T09:00:29;102885.03;;;7.33;100.00
4836;BME280;66719;51.226;6.902;2023-02-13T09:03:00;102875.56;;;7.36;100.00
4836;BME280;66719;51.226;6.902;2023-02-13T09:05:28;102875.75;;;7.43;100.00
4836;BME280;66719;51.226;6.902;2023-02-13T09:07:59;102879.22;;;7.42;100.00
4836;BME280;66719;51.226;6.902;2023-02-13T09:10:29;102888.03;;;7.47;100.00
4836;BME280;66719;51.226;6.902;2023-02-13T09:12:56;102876.72;;;7.46;100.00
4836;BME280;66719;51.226;6.902;2023-02-13T09:15:22;102887.25;;;7.49;100.00
4836;BME280;66719;51.226;6.902;2023-02-13T09:17:49;102877.75;;;7.51;100.00
4836;BME280;66719;51.226;6.902;2023-02-13T09:20:15;102880.53;;;7.57;100.00
4836;BME280;66719;51.226;6.902;2023-02-13T09:22:42;102875.59;;;7.67;100.00
4836;BME280;66719;51.226;6.902;2023-02-13T09:25:09;102880.88;;;7.70;100.00
4836;BME280;66719;51.226;6.902;2023-02-13T09:27:35;102873.13;;;7.73;100.00
4836;BME280;66719;51.226;6.902;2023-02-13T09:30:06;102874.16;;;7.78;100.00
4836;BME280;66719;51.226;6.902;2023-02-13T09:32:32;102876.97;;;7.84;100.00
4836;BME280;66719;51.226;6.902;2023-02-13T09:34:59;102882.28;;;7.88;100.00
4836;BME280;66719;51.226;6.902;2023-02-13T09:37:26;102873.69;;;7.91;100.00
4836;BME280;66719;51.226;6.902;2023-02-13T09:39:52;102878.09;;;7.93;100.00
4836;BME280;66719;51.226;6.902;2023-02-13T09:42:26;102874.59;;;7.93;100.00
4836;BME280;66719;51.226;6.902;2023-02-13T09:45:01;102879.88;;;7.96;100.00
4836;BME280;66719;51.226;6.902;2023-02-13T09:47:31;102869.63;;;8.02;100.00
4836;BME280;66719;51.226;6.902;2023-02-13T09:50:09;102869.69;;;8.05;100.00
4836;BME280;66719;51.226;6.902;2023-02-13T09:52:38;102878.44;;;8.07;100.00
4836;BME280;66719;51.226;6.902;2023-02-13T09:55:26;102870.78;;;8.13;100.00
4836;BME280;66719;51.226;6.902;2023-02-13T09:58:32;102878.78;;;8.19;100.00
4836;BME280;66719;51.226;6.902;2023-02-13T10:01:04;102872.75;;;8.22;100.00
4836;BME280;66719;51.226;6.902;2023-02-13T10:03:37;102877.91;;;8.19;100.00
4836;BME280;66719;51.226;6.902;2023-02-13T10:08:54;102886.00;;;8.30;100.00
4836;BME280;66719;51.226;6.902;2023-02-13T10:11:40;102881.50;;;8.24;100.00
4836;BME280;66719;51.226;6.902;2023-02-13T10:14:26;102879.09;;;8.32;100.00
4836;BME280;66719;51.226;6.902;2023-02-13T10:17:00;102879.06;;;8.30;100.00
4836;BME280;66719;51.226;6.902;2023-02-13T10:19:49;102880.91;;;8.34;100.00
4836;BME280;66719;51.226;6.902;2023-02-13T10:22:24;102887.16;;;8.39;100.00
4836;BME280;66719;51.226;6.902;2023-02-13T10:25:05;102889.06;;;8.45;100.00
4836;BME280;66719;51.226;6.902;2023-02-13T10:27:36;102891.91;;;8.54;100.00
4836;BME280;66719;51.226;6.902;2023-02-13T10:30:08;102889.94;;;8.45;100.00
4836;BME280;66719;51.226;6.902;2023-02-13T10:33:05;102888.06;;;8.41;100.00
4836;BME280;66719;51.226;6.902;2023-02-13T10:38:29;102885.84;;;8.57;100.00
4836;BME280;66719;51.226;6.902;2023-02-13T10:55:04;102885.53;;;8.77;100.00
4836;BME280;66719;51.226;6.902;2023-02-13T11:00:29;102876.72;;;8.74;100.00
4836;BME280;66719;51.226;6.902;2023-02-13T11:02:58;102877.69;;;8.77;100.00
4836;BME280;66719;51.226;6.902;2023-02-13T11:05:39;102871.69;;;8.83;100.00
4836;BME280;66719;51.226;6.902;2023-02-13T11:08:39;102868.38;;;8.89;100.00
4836;BME280;66719;51.226;6.902;2023-02-13T11:11:31;102864.22;;;8.98;100.00
4836;BME280;66719;51.226;6.902;2023-02-13T11:14:16;102863.50;;;9.04;100.00
4836;BME280;66719;51.226;6.902;2023-02-13T11:19:38;102845.63;;;9.24;100.00
4836;BME280;66719;51.226;6.902;2023-02-13T11:22:12;102839.19;;;9.08;100.00
4836;BME280;66719;51.226;6.902;2023-02-13T11:24:42;102844.47;;;9.11;100.00
4836;BME280;66719;51.226;6.902;2023-02-13T11:27:23;102834.91;;;9.12;100.00
4836;BME280;66719;51.226;6.902;2023-02-13T11:29:57;102834.09;;;9.14;100.00
4836;BME280;66719;51.226;6.902;2023-02-13T11:32:27;102827.19;;;9.16;100.00
4836;BME280;66719;51.226;6.902;2023-02-13T11:34:55;102822.59;;;9.06;100.00
4836;BME280;66719;51.226;6.902;2023-02-13T11:39:54;102823.69;;;9.16;100.00
4836;BME280;66719;51.226;6.902;2023-02-13T11:42:35;102819.50;;;9.24;100.00
4836;BME280;66719;51.226;6.902;2023-02-13T11:45:05;102821.47;;;9.35;100.00
4836;BME280;66719;51.226;6.902;2023-02-13T11:47:40;102822.28;;;9.31;100.00
4836;BME280;66719;51.226;6.902;2023-02-13T11:50:24;102828.22;;;9.24;100.00
4836;BME280;66719;51.226;6.902;2023-02-13T11:52:57;102818.66;;;9.26;100.00
4836;BME280;66719;51.226;6.902;2023-02-13T11:55:30;102813.50;;;9.29;100.00
4836;BME280;66719;51.226;6.902;2023-02-13T11:58:22;102808.22;;;9.26;100.00
4836;BME280;66719;51.226;6.902;2023-02-13T12:06:30;102788.81;;;9.57;100.00
4836;BME280;66719;51.226;6.902;2023-02-13T12:09:00;102796.16;;;9.78;100.00
4836;BME280;66719;51.226;6.902;2023-02-13T12:11:49;102787.22;;;9.66;100.00
4836;BME280;66719;51.226;6.902;2023-02-13T12:14:23;102790.88;;;9.74;100.00
4836;BME280;66719;51.226;6.902;2023-02-13T12:16:54;102792.41;;;10.11;100.00
4836;BME280;66719;51.226;6.902;2023-02-13T12:19:27;102784.66;;;10.17;100.00
4836;BME280;66719;51.226;6.902;2023-02-13T12:22:29;102787.03;;;10.05;100.00
4836;BME280;66719;51.226;6.902;2023-02-13T12:28:22;102774.38;;;9.79;100.00
4836;BME280;66719;51.226;6.902;2023-02-13T12:42:31;102760.69;;;9.94;100.00
4836;BME280;66719;51.226;6.902;2023-02-13T12:45:27;102757.25;;;9.97;100.00
4836;BME280;66719;51.226;6.902;2023-02-13T12:51:24;102761.28;;;10.26;100.00
4836;BME280;66719;51.226;6.902;2023-02-13T12:57:10;102750.97;;;10.38;100.00
4836;BME280;66719;51.226;6.902;2023-02-13T12:59:56;102743.94;;;10.34;100.00
4836;BME280;66719;51.226;6.902;2023-02-13T13:05:19;102736.47;;;10.60;100.00
4836;BME280;66719;51.226;6.902;2023-02-13T13:08:19;102741.63;;;10.54;100.00
4836;BME280;66719;51.226;6.902;2023-02-13T13:10:56;102740.59;;;10.44;100.00
4836;BME280;66719;51.226;6.902;2023-02-13T13:16:08;102725.91;;;10.54;100.00
4836;BME280;66719;51.226;6.902;2023-02-13T13:18:50;102729.25;;;10.44;100.00
4836;BME280;66719;51.226;6.902;2023-02-13T13:21:45;102720.72;;;10.59;100.00
4836;BME280;66719;51.226;6.902;2023-02-13T13:24:34;102716.97;;;11.03;100.00
4836;BME280;66719;51.226;6.902;2023-02-13T13:27:03;102714.34;;;11.87;100.00
4836;BME280;66719;51.226;6.902;2023-02-13T13:29:42;102710.66;;;13.02;100.00
4836;BME280;66719;51.226;6.902;2023-02-13T13:32:15;102713.50;;;13.83;87.07
4836;BME280;66719;51.226;6.902;2023-02-13T13:34:44;102722.25;;;14.23;76.55
4836;BME280;66719;51.226;6.902;2023-02-13T13:37:59;102704.63;;;14.59;75.65
4836;BME280;66719;51.226;6.902;2023-02-13T13:51:16;102707.72;;;16.54;64.69
4836;BME280;66719;51.226;6.902;2023-02-13T14:05:07;102687.59;;;15.32;67.63
4836;BME280;66719;51.226;6.902;2023-02-13T14:07:37;102678.91;;;15.10;67.67
4836;BME280;66719;51.226;6.902;2023-02-13T14:18:05;102675.66;;;14.43;69.06
4836;BME280;66719;51.226;6.902;2023-02-13T14:25:46;102678.38;;;14.02;68.31
4836;BME280;66719;51.226;6.902;2023-02-13T14:28:24;102669.59;;;14.02;69.81
4836;BME280;66719;51.226;6.902;2023-02-13T14:30:52;102679.22;;;14.15;69.32
4836;BME280;66719;51.226;6.902;2023-02-13T14:33:31;102676.56;;;14.24;71.14
4836;BME280;66719;51.226;6.902;2023-02-13T14:36:06;102670.41;;;14.31;71.24
4836;BME280;66719;51.226;6.902;2023-02-13T14:38:33;102670.44;;;14.27;71.86
4836;BME280;66719;51.226;6.902;2023-02-13T14:41:01;102664.31;;;14.08;72.06
4836;BME280;66719;51.226;6.902;2023-02-13T14:43:30;102667.84;;;13.89;72.02
4836;BME280;66719;51.226;6.902;2023-02-13T14:48:34;102666.97;;;13.68;76.07
4836;BME280;66719;51.226;6.902;2023-02-13T14:51:03;102664.34;;;13.68;74.77
4836;BME280;66719;51.226;6.902;2023-02-13T14:53:51;102668.72;;;13.52;72.53
4836;BME280;66719;51.226;6.902;2023-02-13T14:56:21;102661.66;;;13.38;72.28
4836;BME280;66719;51.226;6.902;2023-02-13T14:58:55;102665.19;;;13.31;73.71
4836;BME280;66719;51.226;6.902;2023-02-13T15:01:32;102660.72;;;13.14;74.66
4836;BME280;66719;51.226;6.902;2023-02-13T15:04:19;102658.09;;;13.19;74.99
4836;BME280;66719;51.226;6.902;2023-02-13T15:06:47;102651.13;;;13.22;73.84
4836;BME280;66719;51.226;6.902;2023-02-13T15:09:21;102653.69;;;13.12;74.75
4836;BME280;66719;51.226;6.902;2023-02-13T15:11:49;102651.03;;;12.96;75.96
4836;BME280;66719;51.226;6.902;2023-02-13T15:16:50;102650.97;;;12.75;75.54
4836;BME280;66719;51.226;6.902;2023-02-13T15:19:19;102647.44;;;12.70;75.36
4836;BME280;66719;51.226;6.902;2023-02-13T15:21:51;102655.25;;;12.58;77.43
4836;BME280;66719;51.226;6.902;2023-02-13T15:24:19;102642.06;;;12.45;79.18
4836;BME280;66719;51.226;6.902;2023-02-13T15:27:12;102640.28;;;12.37;78.98
4836;BME280;66719;51.226;6.902;2023-02-13T15:30:02;102640.25;;;12.31;79.85
4836;BME280;66719;51.226;6.902;2023-02-13T15:32:35;102637.59;;;12.26;81.73
4836;BME280;66719;51.226;6.902;2023-02-13T15:35:22;102641.06;;;12.18;81.96